• Join FlightAware (Why Join?)
  • Login
  • US Flag 
03:49AM EDT


 

Airport Tracker/Info


-or-


 

Live Flight TrackerFlight Track Log ✈ UAL1583 ✈ 03-Apr-2014 ✈ KEWR - KSFO

Flight Track Log - Related Links

Times and Time Zones

All times are in EDT time to prevent confusion due to time zone crossing. See the UAL1583 flight status page for this flight to view local times or setup timezone preferences in your user account.

Time Position Orientation Groundspeed Altitude Reporting Facility
EDT Latitude Longitude Course Direction KTS MPH feet Rate Location/Type
08:14PM 40.6500 -74.1833 252° West 191 220 1,400  Level New York TRACON
08:15PM 40.6333 -74.2500 252° West 252 290 3,400 2,100 Climbing New York TRACON
08:16PM 40.7000 -74.3000 330° Northwest 270 311 5,800 2,340 Climbing New York TRACON
08:17PM 40.7667 -74.3167 349° North 280 322 7,900 2,100 Climbing New York TRACON
08:19PM 40.9164 -74.3297 356° North 298 343 11,600 1,560 Climbing New York Center
08:20PM 41.0036 -74.3344 358° North 330 380 12,400 1,140 Climbing New York Center
08:21PM 41.1242 -74.3464 356° North 377 434 13,900 1,500 Climbing New York Center
08:22PM 41.2072 -74.4197 326° Northwest 383 441 15,500 1,740 Climbing New York Center
08:23PM 41.3106 -74.5136 326° Northwest 396 456 17,400 1,860 Climbing New York Center
08:24PM 41.3933 -74.5956 323° Northwest 415 478 19,300 1,800 Climbing New York Center
08:25PM 41.4842 -74.6867 323° Northwest 420 483 21,000 1,380 Climbing New York Center
08:26PM 41.5767 -74.7808 323° Northwest 420 483 22,100 1,200 Climbing New York Center
08:27PM 41.6431 -74.9069 305° West 407 468 23,400 1,200 Climbing New York Center
08:28PM 41.7008 -75.0411 300° West 413 475 24,600 1,140 Climbing New York Center
08:29PM 41.7583 -75.1753 300° West 413 475 25,700 960 Climbing New York Center
08:30PM 41.8214 -75.3244 300° West 419 482 26,600 1,680 Climbing New York Center
08:31PM 41.8711 -75.4419 300° West 419 482 29,100 780 Climbing New York Center
08:37PM 42.1850 -76.2230 294° West 403 464 32,000 360 Climbing FlightAware ADS-B
08:38PM 42.2360 -76.3800 294° West 401 461 32,000  Level FlightAware ADS-B
08:39PM 42.2600 -76.4550 294° West 400 460 32,000  Level FlightAware ADS-B
08:40PM 42.2760 -76.5050 294° West 400 460 32,000  Level FlightAware ADS-B
08:43PM 42.4010 -76.9040 293° West 397 457 32,000  Level FlightAware ADS-B
08:44PM 42.4350 -77.0110 293° West 397 457 32,000  Level FlightAware ADS-B
08:44PM 42.4917 -77.1946 293° West 397 457 32,000  Level FlightAware ADS-B (CYYZ)
08:44PM 42.4630 -77.1010 293° West 398 458 32,000  Level FlightAware ADS-B
08:45PM 42.5056 -77.2398 293° West 397 457 32,000  Level FlightAware ADS-B (CYYZ)
08:45PM 42.5344 -77.3329 293° West 398 458 32,000  Level FlightAware ADS-B (CYYZ)
08:46PM 42.5554 -77.4008 293° West 398 458 32,000  Level FlightAware ADS-B (CYYZ)
08:46PM 42.5680 -77.4420 293° West 399 459 32,000  Level FlightAware ADS-B
08:46PM 42.5770 -77.4712 293° West 398 458 32,000  Level FlightAware ADS-B (CYYZ)
08:47PM 42.5870 -77.5050 293° West 399 459 32,000  Level FlightAware ADS-B
08:47PM 42.5979 -77.5397 293° West 399 459 32,000  Level FlightAware ADS-B (CYYZ)
08:47PM 42.6183 -77.6066 293° West 398 458 32,000  Level FlightAware ADS-B (CYYZ)
08:47PM 42.6160 -77.6000 293° West 399 459 32,000  Level FlightAware ADS-B
08:48PM 42.6380 -77.6716 293° West 398 458 32,000  Level FlightAware ADS-B (CYYZ)
08:48PM 42.6290 -77.6430 293° West 399 459 32,000  Level FlightAware ADS-B
08:48PM 42.6617 -77.7489 293° West 397 457 32,000  Level FlightAware ADS-B (CYYZ)
08:48PM 42.6660 -77.7640 293° West 396 456 32,000  Level FlightAware ADS-B
08:49PM 42.6824 -77.8175 293° West 395 455 32,000  Level FlightAware ADS-B (CYYZ)
08:49PM 42.7025 -77.8844 293° West 395 455 32,000  Level FlightAware ADS-B (CYYZ)
08:50PM 42.7235 -77.9541 293° West 394 453 32,000  Level FlightAware ADS-B (CYYZ)
08:50PM 42.7260 -77.9630 293° West 395 455 32,000  Level FlightAware ADS-B
08:50PM 42.7444 -78.0238 293° West 394 453 32,000  Level FlightAware ADS-B (CYYZ)
08:51PM 42.7649 -78.0922 293° West 395 455 32,000  Level FlightAware ADS-B (CYYZ)
08:51PM 42.7842 -78.1567 293° West 394 453 32,000  Level FlightAware ADS-B (CYYZ)
08:52PM 42.8062 -78.2302 292° West 395 455 32,000  Level FlightAware ADS-B (CYYZ)
08:52PM 42.8266 -78.2989 292° West 395 455 32,000  Level FlightAware ADS-B (CYYZ)
08:53PM 42.8473 -78.3690 292° West 396 456 32,000  Level FlightAware ADS-B (CYYZ)
08:53PM 42.8676 -78.4378 292° West 397 457 32,000  Level FlightAware ADS-B (CYYZ)
08:54PM 42.8877 -78.5060 292° West 397 457 32,000  Level FlightAware ADS-B (CYYZ)
08:54PM 42.9089 -78.5778 292° West 398 458 32,000  Level FlightAware ADS-B (CYYZ)
08:55PM 42.9293 -78.6471 292° West 398 458 32,000  Level FlightAware ADS-B (CYYZ)
08:55PM 42.9248 -78.6318 294° West 398 458 32,000  Level FlightAware ADS-B (CYKZ)
08:55PM 42.9656 -78.7620 294° West 398 458 32,000  Level FlightAware ADS-B (CYYZ)
08:56PM 42.9757 -78.7935 294° West 398 458 32,000  Level FlightAware ADS-B (CYKZ)
08:56PM 42.9879 -78.8319 294° West 398 458 32,000  Level FlightAware ADS-B (CYYZ)
08:56PM 42.9988 -78.8662 293° West 398 458 32,000  Level FlightAware ADS-B (CYKZ)
08:56PM 43.0095 -78.9006 294° West 398 458 32,000  Level FlightAware ADS-B (CYYZ)
08:57PM 43.0257 -78.9522 293° West 398 458 32,000  Level FlightAware ADS-B (CYKZ)
08:57PM 43.0312 -78.9697 294° West 396 456 32,000  Level FlightAware ADS-B (CYYZ)
08:57PM 43.0502 -79.0306 293° West 397 457 32,000  Level FlightAware ADS-B (CYKZ)
08:57PM 43.0523 -79.0373 294° West 396 456 32,000  Level FlightAware ADS-B (CYYZ)
08:58PM 43.0739 -79.1064 294° West 395 455 32,000  Level FlightAware ADS-B (CYYZ)
08:58PM 43.0719 -79.0998 293° West 396 456 32,000  Level FlightAware ADS-B (CYKZ)
08:58PM 43.0956 -79.1760 293° West 395 455 32,000  Level FlightAware ADS-B (CYYZ)
08:59PM 43.1025 -79.1981 293° West 395 455 32,000  Level FlightAware ADS-B (CYKZ)
08:59PM 43.1173 -79.2458 293° West 395 455 32,000  Level FlightAware ADS-B (CYYZ)
08:59PM 43.1138 -79.2348 293° West 395 455 32,000  Level FlightAware ADS-B
08:59PM 43.1385 -79.3143 293° West 395 455 32,000  Level FlightAware ADS-B (CYYZ)
09:00PM 43.1521 -79.3582 293° West 395 455 32,000  Level FlightAware ADS-B (CYKZ)
09:00PM 43.1599 -79.3835 293° West 395 455 32,000  Level FlightAware ADS-B (CYYZ)
09:00PM 43.1768 -79.4381 293° West 395 455 32,000  Level FlightAware ADS-B
09:00PM 43.1810 -79.4517 293° West 394 453 32,000  Level FlightAware ADS-B (CYYZ)
09:01PM 43.2024 -79.5211 293° West 394 453 32,000  Level FlightAware ADS-B (CYYZ)
09:01PM 43.2011 -79.5170 293° West 395 455 32,000  Level FlightAware ADS-B
09:01PM 43.2235 -79.5899 293° West 395 455 32,000  Level FlightAware ADS-B (CYYZ)
09:02PM 43.2258 -79.5977 293° West 396 456 32,000  Level FlightAware ADS-B
09:02PM 43.2448 -79.6597 293° West 396 456 32,000  Level FlightAware ADS-B (CYYZ)
09:02PM 43.2473 -79.6678 293° West 398 458 32,000 1,140 Level FlightAware ADS-B
09:02PM 43.2658 -79.7284 293° West 392 451 32,600 1,200 Climbing FlightAware ADS-B (CYYZ)
09:03PM 43.2655 -79.7273 293° West 392 451 32,600 960 Level FlightAware ADS-B
09:03PM 43.2864 -79.7959 293° West 386 444 33,100 1,260 Climbing FlightAware ADS-B (CYYZ)
09:03PM 43.2897 -79.8067 293° West 388 447 33,300 1,020 Climbing FlightAware ADS-B (CYKF)
09:03PM 43.3073 -79.8645 293° West 384 442 33,600 720 Climbing FlightAware ADS-B (CYYZ)
09:04PM 43.3169 -79.8961 293° West 383 441 33,800 720 Climbing FlightAware ADS-B
09:04PM 43.3277 -79.9321 293° West 381 438 34,000 300 Climbing FlightAware ADS-B (CYYZ)
09:04PM 43.3414 -79.9775 293° West 382 440 34,000  Level FlightAware ADS-B
09:04PM 43.3470 -79.9960 293° West 382 440 34,000  Level FlightAware ADS-B (CYYZ)
09:05PM 43.3679 -80.0654 293° West 381 438 34,000  Level FlightAware ADS-B (CYYZ)
09:05PM 43.3877 -80.1315 293° West 381 438 34,000  Level FlightAware ADS-B (CYYZ)
09:06PM 43.3958 -80.1585 292° West 382 440 34,000  Level FlightAware ADS-B
09:06PM 43.4084 -80.2006 293° West 381 438 34,000  Level FlightAware ADS-B (CYYZ)
09:06PM 43.4284 -80.2673 293° West 380 437 34,000  Level FlightAware ADS-B (CYYZ)
09:07PM 43.4307 -80.2751 292° West 380 437 34,000  Level FlightAware ADS-B (CYKZ)
09:07PM 43.4482 -80.3340 293° West 379 436 34,000  Level FlightAware ADS-B (CYYZ)
09:07PM 43.4521 -80.3473 292° West 379 436 34,000  Level FlightAware ADS-B (CYKZ)
09:07PM 43.4680 -80.4004 293° West 380 437 34,000  Level FlightAware ADS-B (CYYZ)
09:08PM 43.4885 -80.4693 293° West 384 442 34,000  Level FlightAware ADS-B (CYYZ)
09:08PM 43.4964 -80.4960 292° West 384 442 34,000  Level FlightAware ADS-B (CYKF)
09:08PM 43.5083 -80.5363 293° West 385 443 34,000  Level FlightAware ADS-B (CYYZ)
09:09PM 43.5247 -80.5919 292° West 385 443 34,000  Level FlightAware ADS-B (CYYZ)
09:09PM 43.5472 -80.6683 293° West 386 444 34,000  Level FlightAware ADS-B (CYYZ)
09:09PM 43.5432 -80.6547 292° West 387 445 34,000  Level FlightAware ADS-B (CYKZ)
09:10PM 43.5616 -80.7173 292° West 388 447 34,000  Level FlightAware ADS-B (CYYZ)
09:10PM 43.5682 -80.7400 292° West 388 447 34,000  Level FlightAware ADS-B (CYKZ)
09:10PM 43.5881 -80.8080 292° West 389 448 34,000  Level FlightAware ADS-B (CYYZ)
09:11PM 43.6074 -80.8741 292° West 390 449 34,000  Level FlightAware ADS-B (CYYZ)
09:11PM 43.5695 -80.7443 292° West 391 450 34,000  Level FlightAware ADS-B (CYKF)
09:11PM 43.6277 -80.9436 292° West 390 449 34,000  Level FlightAware ADS-B (CYYZ)
09:12PM 43.6486 -81.0161 292° West 390 449 34,000  Level FlightAware ADS-B (CYYZ)
09:12PM 43.6688 -81.0858 292° West 389 448 34,000  Level FlightAware ADS-B (CYYZ)
09:13PM 43.6647 -81.0718 292° West 389 448 34,000  Level FlightAware ADS-B (CYKZ)
09:13PM 43.6888 -81.1546 292° West 388 447 34,000  Level FlightAware ADS-B (CYYZ)
09:13PM 43.6925 -81.1676 292° West 386 444 34,000  Level FlightAware ADS-B (CYKZ)
09:13PM 43.6972 -81.1839 292° West 385 443 34,000  Level FlightAware ADS-B (CYYZ)
09:14PM 43.7199 -81.2627 292° West 385 443 34,000  Level FlightAware ADS-B (CYKZ)
09:14PM 43.7407 -81.3356 292° West 385 443 34,000  Level FlightAware ADS-B (CYKZ)
09:15PM 43.7650 -81.4202 292° West 385 443 34,000  Level FlightAware ADS-B (CYKZ)
09:16PM 43.7897 -81.5073 291° West 384 442 34,000  Level FlightAware ADS-B (CYKZ)
09:17PM 43.8389 -81.6811 291° West 382 440 34,000  Level FlightAware ADS-B (CYKZ)
09:18PM 43.8814 -81.8320 291° West 381 438 34,000  Level FlightAware ADS-B (CYKZ)
09:18PM 43.9032 -81.9100 291° West 381 438 34,000  Level FlightAware ADS-B (CYKZ)
09:19PM 43.9262 -81.9923 291° West 380 437 34,000  Level FlightAware ADS-B (CYKZ)
09:20PM 43.9506 -82.0798 291° West 378 435 34,000  Level FlightAware ADS-B (CYKZ)
09:22PM 43.9806 -82.3881 269° West 369 425 34,000  Level FlightAware ADS-B (CYKZ)
09:25PM 43.9740 -82.7748 270° West 373 429 34,000  Level FlightAware ADS-B
09:26PM 43.9705 -82.9517 270° West 373 429 34,000  Level FlightAware ADS-B
09:28PM 43.9658 -83.1702 268° West 360 414 34,000 -300 Level FlightAware ADS-B
09:34PM 43.9418 -84.0897 268° West 362 417 32,000 -300 Descending FlightAware ADS-B
09:35PM 43.9378 -84.2199 268° West 363 418 32,000  Level FlightAware ADS-B
09:36PM 43.9357 -84.2851 268° West 364 419 32,000  Level FlightAware ADS-B
09:36PM 43.9357 -84.4123 278° West 368 423 32,000  Level FlightAware ADS-B
09:37PM 43.9466 -84.5100 279° West 369 425 32,000  Level FlightAware ADS-B
09:38PM 43.9571 -84.6042 279° West 368 423 32,000  Level FlightAware ADS-B
09:38PM 43.9679 -84.7001 279° West 367 422 32,000  Level FlightAware ADS-B
09:39PM 43.9779 -84.7901 279° West 367 422 32,000  Level FlightAware ADS-B
09:40PM 43.9872 -84.8749 279° West 366 421 32,000  Level FlightAware ADS-B
09:40PM 43.9974 -84.9683 279° West 366 421 32,000  Level FlightAware ADS-B
09:41PM 44.0069 -85.0543 279° West 365 420 32,000  Level FlightAware ADS-B
09:42PM 44.0165 -85.1450 278° West 365 420 32,000  Level FlightAware ADS-B
09:42PM 44.0272 -85.2455 278° West 365 420 32,000  Level FlightAware ADS-B
09:44PM 44.0481 -85.4436 278° West 365 420 32,000  Level FlightAware ADS-B
09:44PM 44.0574 -85.5322 278° West 366 421 32,000  Level FlightAware ADS-B
09:46PM 44.0792 -85.7457 278° West 367 422 32,000  Level FlightAware ADS-B
09:47PM 44.0910 -85.8619 278° West 367 422 32,000  Level FlightAware ADS-B
09:47PM 44.0996 -85.9477 278° West 367 422 32,000  Level FlightAware ADS-B
09:52PM 44.1611 -86.5794 278° West 370 426 32,000  Level FlightAware ADS-B (KMDW)
09:52PM 44.1679 -86.6521 277° West 371 427 32,000  Level FlightAware ADS-B (KMDW)
09:53PM 44.1822 -86.8064 277° West 373 429 32,000  Level FlightAware ADS-B (KMDW)
09:55PM 44.1957 -86.9542 277° West 386 444 32,000  Level FlightAware ADS-B (KMDW)
09:55PM 44.2089 -87.1010 277° West 393 452 32,000  Level FlightAware ADS-B (KMDW)
09:56PM 44.2158 -87.1773 277° West 394 453 32,000  Level FlightAware ADS-B (KMDW)
09:57PM 44.2227 -87.2551 277° West 395 455 32,000  Level FlightAware ADS-B (KMDW)
09:57PM 44.2343 -87.3873 277° West 394 453 32,000 360 Level FlightAware ADS-B (KMDW)
09:59PM 44.2548 -87.6260 277° West 383 441 33,000 720 Climbing FlightAware ADS-B (KMDW)
10:00PM 44.2611 -87.7006 277° West 379 436 33,600 960 Climbing FlightAware ADS-B (KMDW)
10:00PM 44.2673 -87.7747 277° West 378 435 34,000 300 Climbing FlightAware ADS-B (KMDW)
10:01PM 44.2756 -87.8768 277° West 380 437 34,000  Level FlightAware ADS-B (KMDW)
10:02PM 44.2858 -88.0007 277° West 383 441 34,000  Level FlightAware ADS-B (KMDW)
10:02PM 44.2918 -88.0736 276° West 383 441 34,000  Level FlightAware ADS-B (KMDW)
10:03PM 44.2994 -88.1690 276° West 385 443 34,000  Level FlightAware ADS-B (KMDW)
10:04PM 44.3122 -88.3228 276° West 382 440 34,000  Level Minneapolis Center
10:05PM 44.3231 -88.4706 276° West 383 441 34,000  Level Minneapolis Center
10:06PM 44.3347 -88.6178 276° West 383 441 34,000  Level Minneapolis Center
10:12PM 44.3961 -89.4712 275° West 379 436 34,000  Level FlightAware ADS-B (KAUW)
10:13PM 44.4092 -89.6628 275° West 380 437 34,000  Level Minneapolis Center
10:14PM 44.4203 -89.8414 275° West 383 441 34,000  Level Minneapolis Center
10:15PM 44.4303 -89.9892 275° West 385 443 34,000  Level Minneapolis Center
10:16PM 44.4394 -90.1364 275° West 384 442 34,000  Level Minneapolis Center
10:17PM 44.4483 -90.2842 275° West 384 442 34,000  Level Minneapolis Center
10:18PM 44.4569 -90.4317 275° West 384 442 34,000  Level Minneapolis Center
10:19PM 44.4667 -90.5764 275° West 380 437 34,000  Level Minneapolis Center
10:20PM 44.4744 -90.7214 274° West 379 436 34,000  Level Minneapolis Center
10:21PM 44.4856 -90.8989 275° West 380 437 34,000  Level Minneapolis Center
10:22PM 44.4922 -91.0353 274° West 381 438 34,000  Level Minneapolis Center
10:23PM 44.5000 -91.1856 274° West 382 440 34,000  Level Minneapolis Center
10:24PM 44.5081 -91.3369 274° West 387 445 34,000  Level Minneapolis Center
10:25PM 44.5150 -91.4886 274° West 388 447 34,000  Level Minneapolis Center
10:26PM 44.5256 -91.6739 275° West 394 453 34,000  Level Minneapolis Center
10:27PM 44.5319 -91.8278 273° West 395 455 34,000  Level Minneapolis Center
10:29PM 44.5397 -91.9819 274° West 395 455 34,000  Level Minneapolis Center
10:30PM 44.5461 -92.1369 273° West 396 456 34,000  Level Minneapolis Center
10:31PM 44.5528 -92.2892 274° West 396 456 34,000  Level Minneapolis Center
10:32PM 44.5597 -92.4444 274° West 396 456 34,000  Level Minneapolis Center
10:33PM 44.5664 -92.6008 273° West 399 459 34,000  Level Minneapolis Center
10:34PM 44.5728 -92.7575 273° West 400 460 34,000  Level Minneapolis Center
10:35PM 44.5792 -92.9153 273° West 402 463 34,000  Level Minneapolis Center
10:36PM 44.5853 -93.0761 273° West 405 466 34,000  Level Minneapolis Center
10:37PM 44.5803 -93.2364 268° West 406 467 34,000  Level Minneapolis Center
10:38PM 44.5703 -93.3953 265° West 406 467 34,000  Level Minneapolis Center
10:39PM 44.5617 -93.5519 266° West 404 465 34,000  Level Minneapolis Center
10:40PM 44.5503 -93.7406 265° West 404 465 34,000  Level Minneapolis Center
10:41PM 44.5408 -93.8975 265° West 404 465 34,000  Level Minneapolis Center
10:42PM 44.5308 -94.0544 265° West 404 465 34,000  Level Minneapolis Center
10:43PM 44.5203 -94.2136 265° West 407 468 34,000  Level Minneapolis Center
10:44PM 44.5106 -94.3728 265° West 410 472 34,000  Level Minneapolis Center
10:45PM 44.4997 -94.5325 265° West 411 473 34,000  Level Minneapolis Center
10:46PM 44.4889 -94.7106 265° West 411 473 34,000  Level Minneapolis Center
10:47PM 44.4783 -94.8700 265° West 411 473 34,000  Level Minneapolis Center
10:48PM 44.4661 -95.0294 264° West 411 473 34,000  Level Minneapolis Center
10:49PM 44.4544 -95.1897 264° West 412 474 34,000  Level Minneapolis Center
10:50PM 44.4422 -95.3497 264° West 413 475 34,000  Level Minneapolis Center
10:51PM 44.4294 -95.5097 264° West 413 475 34,000  Level Minneapolis Center
10:52PM 44.4172 -95.6703 264° West 414 476 34,000  Level Minneapolis Center
10:53PM 44.4044 -95.8281 264° West 414 476 34,000  Level Minneapolis Center
10:54PM 44.3886 -96.0183 263° West 414 476 34,000  Level Minneapolis Center
10:55PM 44.3747 -96.1744 263° West 414 476 34,000  Level Minneapolis Center
10:56PM 44.3619 -96.3303 264° West 414 476 34,000  Level Minneapolis Center
10:57PM 44.3489 -96.4875 263° West 414 476 34,000  Level Minneapolis Center
10:58PM 44.3350 -96.6483 263° West 416 479 34,000  Level Minneapolis Center
10:59PM 44.3208 -96.8069 263° West 416 479 34,000  Level Minneapolis Center
11:00PM 44.3033 -96.9992 263° West 417 480 34,000  Level Minneapolis Center
11:01PM 44.2889 -97.1606 263° West 417 480 34,000  Level Minneapolis Center
11:02PM 44.2742 -97.3214 263° West 418 481 34,000  Level Minneapolis Center
11:03PM 44.2586 -97.4850 262° West 421 484 34,000  Level Minneapolis Center
11:04PM 44.2431 -97.6494 263° West 427 491 34,000  Level Minneapolis Center
11:05PM 44.2275 -97.8147 263° West 429 494 34,000  Level Minneapolis Center
11:06PM 44.2114 -97.9814 262° West 431 496 34,000  Level Minneapolis Center
11:07PM 44.1953 -98.1467 262° West 433 498 34,000  Level Minneapolis Center
11:08PM 44.1789 -98.3117 262° West 433 498 34,000  Level Minneapolis Center
11:09PM 44.1614 -98.4794 262° West 433 498 34,000  Level Minneapolis Center
11:10PM 44.1397 -98.6808 262° West 435 501 34,000  Level Minneapolis Center
11:11PM 44.1228 -98.8375 261° West 439 505 34,000  Level Minneapolis Center
11:12PM 44.1050 -99.0056 262° West 440 506 34,000  Level Minneapolis Center
11:13PM 44.0864 -99.1753 261° West 440 506 34,000  Level Minneapolis Center
11:14PM 44.0678 -99.3458 261° West 443 510 34,000  Level Minneapolis Center
11:15PM 44.0489 -99.5178 261° West 444 511 34,000  Level Minneapolis Center
11:17PM 44.0247 -99.7253 261° West 447 514 34,000  Level Minneapolis Center
11:18PM 44.0058 -99.8972 261° West 448 516 34,000  Level Minneapolis Center
11:19PM 43.9853 -100.0656 260° West 447 514 34,000  Level Minneapolis Center
11:20PM 43.9650 -100.2344 261° West 447 514 34,000  Level Minneapolis Center
11:21PM 43.9442 -100.4036 260° West 447 514 34,000  Level Minneapolis Center
11:22PM 43.9244 -100.5742 261° West 447 514 34,000  Level Minneapolis Center
11:23PM 43.9031 -100.7442 260° West 447 514 34,000  Level Minneapolis Center
11:24PM 43.8825 -100.9122 260° West 446 513 34,000  Level Minneapolis Center
11:24PM 43.8689 -101.0111 259° West 444 511 34,000  Level Denver Center
11:25PM 43.8475 -101.1781 260° West 443 510 34,000  Level Denver Center
11:26PM 43.8222 -101.3797 260° West 442 509 34,000  Level Denver Center
11:27PM 43.8050 -101.5150 260° West 443 510 34,000  Level Denver Center
11:28PM 43.7797 -101.7153 260° West 443 510 34,000  Level Denver Center
11:29PM 43.7567 -101.8825 259° West 443 510 34,000  Level Denver Center
11:30PM 43.7358 -102.0506 260° West 443 510 34,000  Level Denver Center
11:31PM 43.7108 -102.2383 260° West 443 510 34,000  Level Denver Center
11:32PM 43.6883 -102.3958 259° West 441 507 34,000  Level Denver Center
11:34PM 43.6669 -102.5533 259° West 440 506 34,000  Level Denver Center
11:35PM 43.6433 -102.7375 260° West 439 505 34,000  Level Denver Center
11:36PM 43.6214 -102.8931 259° West 438 504 34,000  Level Denver Center
11:37PM 43.5950 -103.0725 259° West 430 495 34,000  Level Denver Center
11:38PM 43.5733 -103.2286 259° West 431 496 34,000  Level Denver Center
11:39PM 43.5478 -103.4100 259° West 431 496 34,000  Level Denver Center
11:40PM 43.5250 -103.5647 259° West 431 496 34,000  Level Denver Center
11:41PM 43.5022 -103.7178 258° West 431 496 34,000  Level Denver Center
11:42PM 43.4750 -103.8942 258° West 426 490 34,000  Level Denver Center
11:43PM 43.4519 -104.0478 258° West 427 491 34,000  Level Denver Center
11:44PM 43.4214 -104.2497 258° West 426 490 34,000  Level Denver Center
11:45PM 43.3983 -104.4025 258° West 426 490 34,000  Level Denver Center
11:46PM 43.3703 -104.5794 258° West 426 490 34,000  Level Denver Center
11:51PM 43.2283 -105.4632 257° West 439 505 34,000  Level FlightAware ADS-B (KEIK)
11:52PM 43.2138 -105.5509 257° West 440 506 34,000  Level FlightAware ADS-B (KEIK)
11:53PM 43.1959 -105.6583 257° West 438 504 34,000  Level FlightAware ADS-B (KEIK)
11:53PM 43.1820 -105.7401 257° West 439 505 34,000  Level FlightAware ADS-B (KEIK)
11:54PM 43.1569 -105.8875 257° West 438 504 34,000  Level Denver Center
11:55PM 43.1311 -106.0436 257° West 439 505 34,000  Level Denver Center
11:56PM 43.1000 -106.2239 257° West 439 505 34,000  Level Denver Center
11:57PM 43.0792 -106.3817 260° West 441 507 34,000  Level Denver Center
11:58PM 43.0578 -106.5644 261° West 439 505 34,000  Level Denver Center
11:59PM 43.0394 -106.7200 261° West 438 504 34,000  Level Denver Center
12:00AM 43.0203 -106.8742 260° West 434 499 34,000  Level Denver Center
12:01AM 42.9983 -107.0542 261° West 433 498 34,000  Level Denver Center
12:02AM 42.9800 -107.2072 261° West 431 496 34,000  Level Denver Center
12:03AM 42.9583 -107.3744 260° West 428 493 34,000  Level Denver Center
12:04AM 42.9375 -107.5339 260° West 427 491 34,000  Level Denver Center
12:05AM 42.9169 -107.7014 261° West 428 493 34,000  Level Denver Center
12:07AM 42.8908 -107.9050 260° West 429 494 34,000  Level Salt Lake Center
12:08AM 42.8706 -108.0572 260° West 429 494 34,000  Level Salt Lake Center
12:09AM 42.8467 -108.2358 260° West 427 491 34,000  Level Salt Lake Center
12:10AM 42.8269 -108.3903 260° West 429 494 34,000  Level Salt Lake Center
12:11AM 42.8058 -108.5403 259° West 429 494 34,000  Level Salt Lake Center
12:12AM 42.7814 -108.7189 259° West 429 494 34,000  Level Salt Lake Center
12:13AM 42.7608 -108.8683 259° West 426 490 34,000  Level Salt Lake Center
12:14AM 42.7367 -109.0444 259° West 426 490 34,000  Level Salt Lake Center
12:15AM 42.7147 -109.1922 259° West 423 487 34,000  Level Salt Lake Center
12:16AM 42.6936 -109.3419 259° West 422 486 34,000  Level Salt Lake Center
12:17AM 42.6681 -109.5153 259° West 422 486 34,000  Level Salt Lake Center
12:18AM 42.6464 -109.6644 259° West 422 486 34,000  Level Salt Lake Center
12:19AM 42.6206 -109.8372 259° West 422 486 34,000  Level Salt Lake Center
12:20AM 42.5983 -109.9878 259° West 423 487 34,000  Level Salt Lake Center
12:21AM 42.5714 -110.1631 258° West 424 488 34,000  Level Salt Lake Center
12:22AM 42.5494 -110.3119 259° West 424 488 34,000  Level Salt Lake Center
12:23AM 42.5261 -110.4625 258° West 424 488 34,000  Level Salt Lake Center
12:24AM 42.4994 -110.6353 258° West 424 488 34,000  Level Salt Lake Center
12:25AM 42.4753 -110.7856 258° West 425 489 34,000  Level Salt Lake Center
12:31AM 42.3306 -111.6817 258° West 423 487 34,000  Level FlightAware ADS-B (KBTF)
12:31AM 42.3169 -111.7635 258° West 423 487 34,000  Level FlightAware ADS-B (KBTF)
12:32AM 42.2958 -111.8896 258° West 424 488 34,000  Level FlightAware ADS-B (KBTF)
12:33AM 42.2773 -111.9999 258° West 425 489 34,000  Level FlightAware ADS-B (KBTF)
12:33AM 42.2625 -112.0866 257° West 427 491 34,000  Level FlightAware ADS-B (KBTF)
12:34AM 42.2468 -112.1782 257° West 427 491 34,000  Level FlightAware ADS-B (KBTF)
12:35AM 42.2294 -112.2806 257° West 426 490 34,000  Level FlightAware ADS-B (KBTF)
12:35AM 42.2144 -112.3678 257° West 426 490 34,000  Level FlightAware ADS-B (KBTF)
12:36AM 42.1953 -112.4623 250° West 426 490 34,000  Level FlightAware ADS-B (KBTF)
12:36AM 42.1824 -112.5029 245° Southwest 426 490 34,000  Level FlightAware ADS-B (KBTF)
12:37AM 42.1558 -112.5816 246° West 426 490 34,000  Level FlightAware ADS-B
12:37AM 42.1218 -112.6822 246° West 427 491 34,000  Level FlightAware ADS-B
12:38AM 42.0980 -112.7522 246° West 427 491 34,000  Level FlightAware ADS-B
12:38AM 42.0719 -112.8289 246° West 427 491 34,000  Level FlightAware ADS-B
12:39AM 42.0391 -112.9249 245° Southwest 427 491 34,000  Level FlightAware ADS-B
12:39AM 42.0141 -112.9977 245° Southwest 426 490 34,000  Level FlightAware ADS-B
12:40AM 41.9895 -113.0696 245° Southwest 425 489 34,000  Level FlightAware ADS-B
12:40AM 41.9630 -113.1461 245° Southwest 426 490 34,000  Level FlightAware ADS-B
12:41AM 41.9391 -113.2154 245° Southwest 426 490 34,000  Level FlightAware ADS-B
12:42AM 41.9110 -113.2964 245° Southwest 426 490 34,000  Level FlightAware ADS-B (KBTF)
12:42AM 41.8860 -113.3685 245° Southwest 426 490 34,000  Level FlightAware ADS-B
12:43AM 41.8556 -113.4554 245° Southwest 426 490 34,000  Level FlightAware ADS-B
12:43AM 41.8311 -113.5253 245° Southwest 426 490 34,000  Level FlightAware ADS-B
12:44AM 41.8053 -113.5990 245° Southwest 428 493 34,000  Level FlightAware ADS-B
12:44AM 41.7787 -113.6747 245° Southwest 430 495 34,000  Level FlightAware ADS-B
12:45AM 41.7537 -113.7463 245° Southwest 430 495 34,000  Level FlightAware ADS-B
12:45AM 41.7284 -113.8181 245° Southwest 430 495 34,000  Level FlightAware ADS-B
12:46AM 41.7029 -113.8898 245° Southwest 431 496 34,000  Level FlightAware ADS-B
12:46AM 41.6764 -113.9642 245° Southwest 431 496 34,000  Level FlightAware ADS-B
12:46AM 41.6669 -113.9910 245° Southwest 431 496 34,000  Level FlightAware ADS-B
12:47AM 41.6311 -114.0915 246° West 427 491 34,000  Level FlightAware ADS-B (KBTF)
12:48AM 41.5936 -114.1962 246° West 427 491 34,000  Level FlightAware ADS-B (KBTF)
12:48AM 41.5588 -114.2929 245° Southwest 425 489 34,000  Level FlightAware ADS-B (KBTF)
12:49AM 41.5248 -114.3872 245° Southwest 424 488 34,000  Level FlightAware ADS-B (KBTF)
12:50AM 41.4927 -114.4761 245° Southwest 422 486 34,000  Level FlightAware ADS-B (KBTF)
12:50AM 41.4567 -114.5761 245° Southwest 421 484 34,000  Level FlightAware ADS-B (KBTF)
12:51AM 41.4311 -114.6466 245° Southwest 419 482 34,000  Level FlightAware ADS-B (KBTF)
12:52AM 41.3890 -114.7620 245° Southwest 417 480 34,000  Level FlightAware ADS-B (KBTF)
12:52AM 41.3550 -114.8542 245° Southwest 415 478 34,000  Level FlightAware ADS-B (KBTF)
12:53AM 41.3232 -114.9412 245° Southwest 416 479 34,000  Level FlightAware ADS-B (KBTF)
12:54AM 41.2606 -115.1111 245° Southwest 416 479 34,000  Level FlightAware ADS-B (KBTF)
12:56AM 41.2031 -115.2583 245° Southwest 420 483 34,000  Level Oakland Center
12:57AM 41.1536 -115.3906 244° Southwest 420 483 34,000  Level Oakland Center
12:58AM 41.0953 -115.5478 244° Southwest 420 483 34,000  Level Oakland Center
12:59AM 41.0389 -115.7014 244° Southwest 419 482 34,000  Level Salt Lake Center
01:00AM 40.9892 -115.8342 244° Southwest 420 483 34,000  Level Salt Lake Center
01:01AM 40.9317 -115.9878 244° Southwest 419 482 34,000  Level Salt Lake Center
01:02AM 40.8811 -116.1189 243° Southwest 419 482 34,000  Level Salt Lake Center
01:03AM 40.8314 -116.2503 243° Southwest 418 481 34,000  Level Salt Lake Center
01:04AM 40.7714 -116.4014 242° Southwest 417 480 34,000  Level Salt Lake Center
01:05AM 40.7219 -116.5317 243° Southwest 417 480 34,000  Level Salt Lake Center
01:06AM 40.6794 -116.6397 243° Southwest 417 480 34,000  Level Salt Lake Center
01:07AM 40.6133 -116.8106 243° Southwest 416 479 34,000  Level Salt Lake Center
01:08AM 40.5633 -116.9381 243° Southwest 416 479 34,000  Level Salt Lake Center
01:09AM 40.5239 -117.0969 252° West 416 479 34,000  Level Salt Lake Center
01:10AM 40.4881 -117.2336 251° West 415 478 34,000  Level Salt Lake Center
01:16AM 40.2564 -118.0892 250° West 416 479 34,000  Level FlightAware ADS-B (KAHC)
01:16AM 40.2336 -118.1707 250° West 415 478 34,000  Level FlightAware ADS-B (KAHC)
01:19AM 40.1299 -118.5387 250° West 412 474 34,000  Level FlightAware ADS-B (KAHC)
01:19AM 40.1074 -118.6181 250° West 414 476 34,000  Level FlightAware ADS-B (KAHC)
01:20AM 40.0868 -118.6900 250° West 414 476 34,000  Level FlightAware ADS-B (KAHC)
01:21AM 40.0655 -118.7640 250° West 416 479 34,000  Level FlightAware ADS-B (KAHC)
01:21AM 40.0444 -118.8377 250° West 417 480 34,000  Level FlightAware ADS-B (KAHC)
01:22AM 40.0209 -118.9194 249° West 419 482 34,000  Level FlightAware ADS-B (KAHC)
01:22AM 40.0003 -118.9908 249° West 419 482 34,000  Level FlightAware ADS-B (KAHC)
01:23AM 39.9773 -119.0703 249° West 419 482 34,000  Level FlightAware ADS-B (KAHC)
01:23AM 39.9570 -119.1402 249° West 420 483 34,000  Level FlightAware ADS-B (KAHC)
01:24AM 39.9331 -119.2224 249° West 421 484 34,000  Level FlightAware ADS-B (KAHC)
01:24AM 39.9125 -119.2925 249° West 420 483 34,000  Level FlightAware ADS-B (KAHC)
01:25AM 39.8824 -119.3956 249° West 421 484 34,000  Level FlightAware ADS-B (KAHC)
01:26AM 39.8515 -119.5010 249° West 424 488 34,000  Level FlightAware ADS-B (KAHC)
01:26AM 39.8448 -119.5237 249° West 423 487 34,000  Level FlightAware ADS-B
01:27AM 39.8065 -119.6533 248° West 421 484 34,000  Level FlightAware ADS-B
01:28AM 39.7790 -119.7455 248° West 422 486 34,000  Level FlightAware ADS-B
01:28AM 39.7511 -119.8392 248° West 421 484 34,000  Level FlightAware ADS-B
01:29AM 39.7243 -119.9290 248° West 421 484 34,000  Level FlightAware ADS-B
01:30AM 39.6858 -120.0569 249° West 422 486 34,000  Level FlightAware ADS-B (KAHC)
01:30AM 39.6652 -120.1254 249° West 420 483 34,000  Level FlightAware ADS-B (KAHC)
01:31AM 39.6527 -120.1672 248° West 421 484 34,000  Level FlightAware ADS-B
01:31AM 39.6119 -120.3018 249° West 422 486 34,000  Level FlightAware ADS-B (KAHC)
01:32AM 39.5825 -120.3985 249° West 422 486 34,000  Level FlightAware ADS-B (KAHC)
01:33AM 39.5600 -120.4720 248° West 421 484 34,000  Level FlightAware ADS-B (KAHC)
01:33AM 39.5279 -120.5766 248° West 418 481 34,000  Level FlightAware ADS-B (KAHC)
01:34AM 39.5061 -120.6478 248° West 420 483 34,000  Level FlightAware ADS-B (KAHC)
01:34AM 39.4841 -120.7191 248° West 421 484 34,000  Level FlightAware ADS-B (KAHC)
01:35AM 39.4570 -120.7946 240° Southwest 421 484 34,000  Level FlightAware ADS-B (KAHC)
01:35AM 39.4438 -120.8204 234° Southwest 422 486 34,000  Level FlightAware ADS-B
01:36AM 39.3945 -120.8984 230° Southwest 424 488 34,000  Level FlightAware ADS-B
01:37AM 39.3327 -120.9936 230° Southwest 428 493 34,000  Level FlightAware ADS-B (KAHC)
01:37AM 39.2920 -121.0562 230° Southwest 428 493 34,000  Level FlightAware ADS-B
01:38AM 39.2393 -121.1373 230° Southwest 431 496 34,000  Level FlightAware ADS-B
01:39AM 39.1887 -121.2148 229° Southwest 432 497 34,000  Level FlightAware ADS-B
01:39AM 39.1364 -121.2947 230° Southwest 433 498 34,000  Level FlightAware ADS-B
01:40AM 39.0856 -121.3721 229° Southwest 432 497 34,000  Level FlightAware ADS-B
01:41AM 39.0305 -121.4556 229° Southwest 432 497 34,000  Level FlightAware ADS-B
01:41AM 38.9789 -121.5339 229° Southwest 432 497 34,000  Level FlightAware ADS-B
01:42AM 38.9290 -121.6092 229° Southwest 433 498 34,000  Level FlightAware ADS-B
01:43AM 38.8736 -121.6928 229° Southwest 433 498 34,000  Level FlightAware ADS-B
01:43AM 38.8237 -121.7681 229° Southwest 434 499 34,000  Level FlightAware ADS-B
01:44AM 38.7705 -121.8480 229° Southwest 434 499 34,000  Level FlightAware ADS-B
01:45AM 38.7174 -121.9274 229° Southwest 435 501 34,000  Level FlightAware ADS-B
01:45AM 38.6645 -122.0062 229° Southwest 436 502 34,000 -480 Level FlightAware ADS-B
01:46AM 38.6109 -122.0859 229° Southwest 434 499 33,400 -2,100 Descending FlightAware ADS-B
01:47AM 38.5599 -122.1625 229° Southwest 435 501 31,200 -3,180 Descending FlightAware ADS-B
01:47AM 38.5081 -122.2397 229° Southwest 431 496 29,200 -2,640 Descending FlightAware ADS-B
01:48AM 38.4547 -122.3188 229° Southwest 417 480 27,700 -2,040 Descending FlightAware ADS-B
01:49AM 38.4075 -122.3897 229° Southwest 389 448 26,600 -2,220 Descending FlightAware ADS-B
01:49AM 38.3609 -122.4578 228° Southwest 379 436 24,800 -2,640 Descending FlightAware ADS-B
01:50AM 38.3129 -122.5261 228° Southwest 370 426 23,100 -2,340 Descending FlightAware ADS-B
01:51AM 38.2697 -122.5890 229° Southwest 358 412 21,700 -2,220 Descending FlightAware ADS-B
01:51AM 38.2296 -122.6490 229° Southwest 350 403 20,200 -2,280 Descending FlightAware ADS-B
01:52AM 38.1854 -122.7143 229° Southwest 340 391 18,700 -2,220 Descending FlightAware ADS-B
01:53AM 38.1435 -122.7750 228° Southwest 328 377 17,200 -1,980 Descending FlightAware ADS-B
01:54AM 38.0581 -122.8314 160° South 318 366 14,800 -1,920 Descending FlightAware ADS-B
01:54AM 38.0202 -122.8037 139° Southeast 329 379 14,100 -1,980 Descending FlightAware ADS-B
01:55AM 37.9728 -122.7522 139° Southeast 327 376 12,800 -1,920 Descending FlightAware ADS-B
01:56AM 37.9119 -122.6868 139° Southeast 322 371 11,000 -1,140 Descending FlightAware ADS-B
01:57AM 37.8610 -122.6320 139° Southeast 309 356 11,000 -120 Level FlightAware ADS-B
01:57AM 37.8244 -122.5930 140° Southeast 309 356 10,900 -240 Descending FlightAware ADS-B
01:57AM 37.8136 -122.5811 139° Southeast 311 358 10,900  Level FlightAware ADS-B (EPWA / WAW)
01:58AM 37.7909 -122.5570 140° Southeast 311 358 10,900 180 Level FlightAware ADS-B
01:58AM 37.8457 -122.6155 139° Southeast 310 357 11,000 -240 Climbing FlightAware ADS-B
01:58AM 37.7585 -122.5220 140° Southeast 270 311 10,800 -180 Descending FlightAware ADS-B
01:59AM 37.7356 -122.4979 139° Southeast 244 281 10,900 60 Climbing FlightAware ADS-B (EPWA / WAW)
01:59AM 37.7098 -122.4700 140° Southeast 241 277 10,900  Level FlightAware ADS-B
01:59AM 37.7017 -122.4617 139° Southeast 236 272 10,900  Level FlightAware ADS-B (EPWA / WAW)
02:00AM 37.6841 -122.4430 140° Southeast 234 269 10,900  Level FlightAware ADS-B
02:00AM 37.6783 -122.4367 139° Southeast 236 272 10,900  Level FlightAware ADS-B (EPWA / WAW)
02:00AM 37.6562 -122.4130 139° Southeast 237 273 10,900 120 Level FlightAware ADS-B
02:00AM 37.6614 -122.4185 139° Southeast 236 272 11,000  Climbing FlightAware ADS-B
02:01AM 37.6294 -122.3840 140° Southeast 237 273 10,900 -240 Descending FlightAware ADS-B
02:01AM 37.6182 -122.3725 139° Southeast 237 273 10,900  Level FlightAware ADS-B (EPWA / WAW)
02:01AM 37.6067 -122.3600 139° Southeast 236 272 10,900 -840 Level FlightAware ADS-B
02:02AM 37.5878 -122.3395 139° Southeast 238 274 10,400 -1,200 Descending FlightAware ADS-B (EPWA / WAW)
02:02AM 37.5813 -122.3320 139° Southeast 235 270 10,300 -1,080 Descending FlightAware ADS-B
02:02AM 37.5693 -122.3190 138° Southeast 235 270 10,000 -1,140 Descending FlightAware ADS-B (EPWA / WAW)
02:02AM 37.5689 -122.3190 138° Southeast 232 267 10,000 -1,140 Level FlightAware ADS-B
02:02AM 37.5567 -122.3050 138° Southeast 225 259 9,700 -1,500 Descending FlightAware ADS-B
02:02AM 37.5469 -122.2940 138° Southeast 222 255 9,300 -1,680 Descending FlightAware ADS-B
02:03AM 37.5412 -122.2878 139° Southeast 221 254 9,100 -1,920 Descending FlightAware ADS-B (KPAO)
02:03AM 37.5343 -122.2800 139° Southeast 221 254 8,800 -2,100 Descending FlightAware ADS-B
02:03AM 37.5221 -122.2670 139° Southeast 221 254 8,300 -1,980 Descending FlightAware ADS-B
02:03AM 37.5103 -122.2540 140° Southeast 219 252 7,800 -1,800 Descending FlightAware ADS-B
02:03AM 37.4982 -122.2420 141° Southeast 219 252 7,400 -2,100 Descending FlightAware ADS-B
02:04AM 37.4908 -122.2340 140° Southeast 220 253 6,900 -1,800 Descending FlightAware ADS-B (KPAO)
02:04AM 37.4826 -122.2250 140° Southeast 219 252 6,800 -1,380 Descending FlightAware ADS-B
02:04AM 37.4695 -122.2120 140° Southeast 219 252 6,300 -1,620 Descending FlightAware ADS-B
02:04AM 37.4647 -122.2070 139° Southeast 220 253 6,200 -1,020 Descending FlightAware ADS-B
02:04AM 37.4607 -122.2010 131° Southeast 221 254 6,100 -1,200 Descending FlightAware ADS-B
02:04AM 37.4582 -122.1960 122° Southeast 221 254 6,000 -1,380 Descending FlightAware ADS-B
02:04AM 37.4564 -122.1910 114° Southeast 223 257 5,900 -1,500 Descending FlightAware ADS-B
02:05AM 37.4550 -122.1860 111° Southeast 224 258 5,800 -2,280 Descending FlightAware ADS-B
02:05AM 37.4537 -122.1810 107° East 225 259 5,600 -1,860 Descending FlightAware ADS-B
02:05AM 37.4532 -122.1700 99° East 228 262 5,400 -1,680 Descending FlightAware ADS-B
02:05AM 37.4537 -122.1660 86° East 231 266 5,300 -900 Descending FlightAware ADS-B
02:05AM 37.4548 -122.1610 75° East 232 267 5,300 -780 Level FlightAware ADS-B
02:05AM 37.4566 -122.1560 66° East 234 269 5,200 -1,500 Descending FlightAware ADS-B
02:05AM 37.4590 -122.1510 58° Northeast 235 270 5,100 -1,740 Descending FlightAware ADS-B
02:05AM 37.4613 -122.1470 54° Northeast 236 272 5,000 -720 Descending FlightAware ADS-B
02:05AM 37.4713 -122.1320 51° Northeast 230 265 4,900 -900 Descending FlightAware ADS-B
02:05AM 37.4755 -122.1260 46° Northeast 227 261 4,700 -1,800 Descending FlightAware ADS-B
02:05AM 37.4786 -122.1230 40° Northeast 228 262 4,600 -780 Descending FlightAware ADS-B
02:06AM 37.4825 -122.1200 31° Northeast 227 261 4,600 -780 Level FlightAware ADS-B
02:06AM 37.4862 -122.1180 24° Northeast 227 261 4,500 -1,020 Descending FlightAware ADS-B
02:06AM 37.4830 -122.1195 24° Northeast 227 261 4,500  Level FlightAware ADS-B (KPAO)
02:06AM 37.4938 -122.1170 North 221 254 4,500 -480 Level FlightAware ADS-B
02:06AM 37.5023 -122.1190 345° North 213 245 4,400 -480 Descending FlightAware ADS-B
02:06AM 37.5064 -122.1210 338° Northwest 210 242 4,400 -600 Level FlightAware ADS-B
02:06AM 37.5108 -122.1250 324° Northwest 203 234 4,300 -1,380 Descending FlightAware ADS-B
02:06AM 37.5130 -122.1280 318° Northwest 201 231 4,200 -1,380 Descending FlightAware ADS-B
02:06AM 37.5164 -122.1330 306° West 197 227 4,100 -720 Descending FlightAware ADS-B
02:06AM 37.5179 -122.1360 302° West 196 226 4,100 -1,500 Level FlightAware ADS-B
02:06AM 37.5179 -122.1363 303° West 196 226 4,000 -840 Descending FlightAware ADS-B (KPAO)
02:06AM 37.5245 -122.1510 298° West 194 223 3,900 -480 Descending FlightAware ADS-B
02:07AM 37.5298 -122.1640 298° West 192 221 3,800 -1,020 Descending FlightAware ADS-B
02:07AM 37.5341 -122.1740 297° West 191 220 3,500 -1,440 Descending FlightAware ADS-B
02:07AM 37.5404 -122.1890 298° West 190 219 3,200 -1,140 Descending FlightAware ADS-B
02:07AM 37.5451 -122.2000 298° West 184 212 3,000 -1,200 Descending FlightAware ADS-B
02:07AM 37.5457 -122.2019 297° West 181 208 2,800 -1,680 Descending FlightAware ADS-B (KPAO)
02:08AM 37.5494 -122.2110 298° West 181 208 2,700 -1,680 Descending FlightAware ADS-B
02:08AM 37.5554 -122.2250 299° West 180 207 2,300 -1,380 Descending FlightAware ADS-B
02:08AM 37.5615 -122.2390 297° West 178 205 2,000 -1,140 Descending FlightAware ADS-B
02:08AM 37.5678 -122.2540 298° West 177 204 1,700 -1,080 Descending FlightAware ADS-B
02:08AM 37.5722 -122.2650 298° West 177 204 1,500 -1,080 Descending FlightAware ADS-B
02:09AM 37.5767 -122.2750 298° West 174 200 1,300 -960 Descending FlightAware ADS-B
02:09AM 37.5816 -122.2870 298° West 167 192 1,100 -840 Descending FlightAware ADS-B
02:09AM 37.5868 -122.2990 298° West 158 182 900 -840 Descending FlightAware ADS-B
02:09AM 37.5920 -122.3120 298° West 153 176 700 -780 Descending FlightAware ADS-B
02:10AM 37.5971 -122.3240 297° West 152 175 500 -780 Descending FlightAware ADS-B
02:10AM 37.6022 -122.3360 298° West 153 176 300 -900 Descending FlightAware ADS-B
02:10AM 37.6064 -122.3460 298° West 157 181 100 -960 Descending FlightAware ADS-B